バンクーバー の空港の天気 - METARとTAF

バンクーバー国際空港 ( CYVR / YVR ) - カナダ ブリティッシュコロンビア州バンクーバー
飛行場実況気象(Metar)
観測時間10/23 19:00 PDT (10/24 02:00 UTC)
風向・風速西北西 3m/s
視程10km以上
天気現象
全天の8割程度の雲 雲底高度 3960m
全天の8割程度の雲 雲底高度 7620m
気温9℃
湿度87%
気圧1031.8hPa
METARCYVR 240200Z 30005KT 20SM BKN130 BKN250 09/07 A3047 RMK AC6CI1 SLP318
過去の天気等 Google飛行場航空写真 Wunderground天気予報

過去48時間のMETAR

飛行場予報(TAF)
発表時間: 10/23 19:38 PDT (10/24 02:38 UTC)
予報対象時間: 23日20時 PDT ~ 24日23時 PDT
風向・風速西北西 3m/s
視程10km以上
少しの雲 雲底高度 1220m
全天の8割程度の雲 雲底高度 4270m
23日21時 PDT から
風向・風速不定 2m/s
視程10km以上
少しの雲 雲底高度 240m
全天の8割程度の雲 雲底高度 2440m
全天を覆う雲 雲底高度 6100m
24日1時 PDT から
風向・風速東 3m/s
視程10km以上
少しの雲 雲底高度 180m
全天の8割程度の雲 雲底高度 1830m
全天を覆う雲 雲底高度 3660m
24日11時 PDT から
風向・風速東南東 4m/s
視程10km以上
全天の8割程度の雲 雲底高度 1220m
TAF CYVR 240238Z 2403/2506 30005KT P6SM FEW040 BKN140
FM240400 VRB03KT P6SM FEW008 BKN080 OVC200
FM240800 09006KT P6SM FEW006 BKN060 OVC120
FM241800 12008KT P6SM BKN040 RMK NXT FCST BY 240600Z